»·PEaware :: N5656Y KAJO-KVCV

N5656Y :: KAJO-KVCV

FLIGHT INFORMATION

Flight Status: Arrived
Operator: Privately registered:
United States
More flights under this callsign
Pilot: Anonymous 20359 (20359)
Aircraft: CESSNA 172 SKYHAWK
(C172)
More flights by this aircraft type
Origin: KAJO Corona Mun
United States
Destination: KVCV Socal Logistics
United States
More flights between these airports :: More routes between these airports
Route: PDZ V442 APLES
File this flight plan on PilotEdge
Remarks:
Altitude:
(Current/Filed)
9,000ft
Speed:
(Current/Filed)
120kts
Departed: 09-Oct-18 03:03 PM
Arrived: 09-Oct-18 03:59 PM
Distance/Time
Traveled:
44nm/0:56
Distance/Time
To Go:
Arrived

Flight Plot

Page will automatically refresh every two minutes.


Map Options




Map Legend


Flown Route
Filed Route
Departure Airport
Arrival Airport
Navaid (VOR, NDB)
Fix

Horizontal Profiles

Position Reports

Time Latitude Longitude Heading Altitude Ground
Speed
09-Oct-18 14:55 33.896978 -117.607296 180 537ft 0kts
09-Oct-18 14:56 33.896978 -117.607296 180 537ft 0kts
09-Oct-18 14:57 33.896978 -117.607296 180 537ft 0kts
09-Oct-18 14:58 33.896978 -117.607296 180 537ft 0kts
09-Oct-18 14:59 33.896978 -117.607296 180 537ft 0kts
09-Oct-18 15:00 33.896978 -117.607296 180 537ft 0kts
09-Oct-18 15:01 33.896978 -117.607296 180 537ft 0kts
09-Oct-18 15:02 33.896978 -117.607296 180 537ft 0kts
09-Oct-18 15:03 33.896978 -117.607296 180 537ft 0kts
09-Oct-18 15:04 33.896940 -117.607419 295 537ft 6kts
09-Oct-18 15:05 33.898681 -117.592941 80 872ft 85kts
09-Oct-18 15:06 33.915168 -117.573856 50 1860ft 90kts
09-Oct-18 15:07 33.919579 -117.544860 83 2859ft 87kts
09-Oct-18 15:08 33.924448 -117.517702 53 3851ft 81kts
09-Oct-18 15:09 33.942021 -117.515767 295 4822ft 70kts
09-Oct-18 15:10 33.927712 -117.527362 184 5487ft 92kts
09-Oct-18 15:11 33.923981 -117.548220 348 6224ft 87kts
09-Oct-18 15:12 33.940404 -117.536616 42 6891ft 83kts
09-Oct-18 15:13 33.936373 -117.518490 210 7808ft 71kts
09-Oct-18 15:14 33.920536 -117.525741 221 8244ft 89kts
09-Oct-18 15:15 33.936308 -117.537586 58 8605ft 110kts
09-Oct-18 15:16 33.951156 -117.512411 39 8850ft 113kts
09-Oct-18 15:17 33.982626 -117.489873 27 9189ft 113kts
09-Oct-18 15:18 34.008951 -117.473829 26 8979ft 126kts
09-Oct-18 15:19 34.039889 -117.455066 26 8980ft 125kts
09-Oct-18 15:20 34.069682 -117.434032 36 8976ft 125kts
09-Oct-18 15:21 34.100577 -117.416213 30 8980ft 125kts
09-Oct-18 15:22 34.131121 -117.397037 24 8980ft 124kts
09-Oct-18 15:23 34.162516 -117.378959 25 8980ft 125kts
09-Oct-18 15:24 34.193768 -117.360737 25 8980ft 125kts
09-Oct-18 15:25 34.224777 -117.342626 26 8980ft 125kts
09-Oct-18 15:26 34.256009 -117.324360 26 8980ft 125kts
09-Oct-18 15:27 34.287337 -117.305968 26 8980ft 125kts
09-Oct-18 15:28 34.318350 -117.287299 26 8979ft 125kts
09-Oct-18 15:29 34.348741 -117.268892 26 9103ft 123kts
09-Oct-18 15:30 34.379664 -117.250114 26 9099ft 125kts
09-Oct-18 15:31 34.410785 -117.231217 26 9099ft 125kts
09-Oct-18 15:32 34.441689 -117.212439 26 9099ft 125kts
09-Oct-18 15:33 34.472818 -117.193482 26 9099ft 125kts
09-Oct-18 15:34 34.504069 -117.174598 27 9099ft 125kts
09-Oct-18 15:35 34.535210 -117.155690 25 9099ft 125kts
09-Oct-18 15:36 34.568243 -117.142944 6 9055ft 128kts
09-Oct-18 15:37 34.608120 -117.142741 354 8059ft 149kts
09-Oct-18 15:38 34.648874 -117.151611 343 7060ft 150kts
09-Oct-18 15:39 34.686282 -117.166520 337 6717ft 130kts
09-Oct-18 15:40 34.715244 -117.191580 318 6718ft 128kts
09-Oct-18 15:41 34.746456 -117.224678 318 6718ft 128kts
09-Oct-18 15:42 34.764930 -117.252663 301 6718ft 127kts
09-Oct-18 15:43 34.781970 -117.291285 289 6462ft 142kts
09-Oct-18 15:44 34.790732 -117.334383 282 5242ft 124kts
09-Oct-18 15:45 34.769666 -117.356378 206 4997ft 117kts
09-Oct-18 15:46 34.739571 -117.373271 201 4497ft 120kts
09-Oct-18 15:47 34.709897 -117.384334 186 4364ft 106kts
09-Oct-18 15:48 34.675823 -117.386276 178 3341ft 121kts
09-Oct-18 15:49 34.648587 -117.386499 181 3320ft 89kts
09-Oct-18 15:50 34.622600 -117.386518 180 3461ft 98kts
09-Oct-18 15:51 34.600975 -117.395620 261 4432ft 87kts
09-Oct-18 15:52 34.595061 -117.420868 256 5422ft 74kts
09-Oct-18 15:53 34.595977 -117.449387 284 6024ft 101kts
09-Oct-18 15:54 34.606124 -117.486777 296 6076ft 126kts
09-Oct-18 15:55 34.622149 -117.525483 297 6047ft 130kts
09-Oct-18 15:56 34.647929 -117.522980 76 5624ft 117kts
09-Oct-18 15:57 34.652507 -117.482134 105 5331ft 138kts
09-Oct-18 15:58 34.646286 -117.441232 95 4534ft 106kts
09-Oct-18 15:59 34.644126 -117.405190 95 3298ft 102kts
09-Oct-18 16:00 34.632380 -117.386863 173 3068ft 64kts
09-Oct-18 16:01 34.614693 -117.386705 180 2819ft 35kts
09-Oct-18 16:02 34.610613 -117.385932 94 2827ft 0kts
09-Oct-18 16:03 34.608576 -117.384100 181 2831ft 31kts
09-Oct-18 16:04 34.602155 -117.383850 357 2841ft 4kts

Navigation Log

Ident Type
1. KAJO Airport
2. PDZ Navaid
3. APLES Fix
4. KVCV Airport